Time;durP1;ratioP1;P1;durP2;ratioP2;P2;SDS_P1;SDS_P2;PMS_P1;PMS_P2;Temp;Humidity;BMP_temperature;BMP_pressure;BME280_temperature;BME280_humidity;BME280_pressure;Samples;Min_cycle;Max_cycle;Signal;HPM_P1;HPM_P2
2023/01/27 00:01:52;;;;;;;10.20;6.00;;;;;;;;;;5049272;28;20036;-69
2023/01/27 00:04:18;;;;;;;15.73;7.25;;;;;;;;;;5055616;28;20040;-69
2023/01/27 00:06:44;;;;;;;11.95;6.07;;;5.20;99.90;;;;;;5061226;28;20036;-69
2023/01/27 00:09:10;;;;;;;10.10;6.10;;;;;;;;;;5058688;28;20040;-69
2023/01/27 00:14:23;;;;;;;13.43;5.30;;;;;;;;;;5061123;28;20060;-70
2023/01/27 00:16:49;;;;;;;12.43;5.53;;;;;;;;;;5060735;28;20098;-70
2023/01/27 00:19:18;;;;;;;11.45;6.45;;;;;;;;;;5057685;28;20048;-69
2023/01/27 00:24:36;;;;;;;10.57;6.38;;;4.90;99.90;;;;;;5061645;28;20036;-69
2023/01/27 00:27:03;;;;;;;12.50;7.15;;;4.90;99.90;;;;;;5062454;28;20672;-69
2023/01/27 00:29:29;;;;;;;10.40;6.03;;;4.90;99.90;;;;;;5061349;28;20087;-69
2023/01/27 00:34:40;;;;;;;10.02;6.18;;;4.80;99.90;;;;;;5059569;28;20060;-69
2023/01/27 00:37:06;;;;;;;13.27;6.57;;;4.80;99.90;;;;;;5067061;28;20051;-69
2023/01/27 00:39:32;;;;;;;8.85;5.93;;;4.80;99.90;;;;;;5052168;28;20103;-69
2023/01/27 00:41:58;;;;;;;11.43;6.20;;;4.80;99.90;;;;;;5063362;28;20474;-70
2023/01/27 00:44:24;;;;;;;12.68;5.78;;;4.80;99.90;;;;;;5055068;28;20490;-70
2023/01/27 00:46:50;;;;;;;8.20;5.18;;;4.80;99.90;;;;;;5064133;28;20047;-69
2023/01/27 00:49:17;;;;;;;8.63;5.70;;;4.70;99.90;;;;;;5058536;28;20091;-69
2023/01/27 00:51:43;;;;;;;11.13;5.85;;;4.80;99.90;;;;;;5067154;28;20045;-69
2023/01/27 00:54:10;;;;;;;11.60;5.85;;;;;;;;;;5052669;28;20468;-70
2023/01/27 00:56:36;;;;;;;11.32;5.47;;;;;;;;;;5061362;28;20037;-70
2023/01/27 00:59:03;;;;;;;11.43;5.72;;;;;;;;;;5058940;28;20036;-70
2023/01/27 01:01:29;;;;;;;9.68;5.93;;;;;;;;;;5063659;28;20241;-70
2023/01/27 01:03:57;;;;;;;9.88;4.93;;;;;;;;;;5055677;28;20037;-69
2023/01/27 01:06:24;;;;;;;9.48;5.60;;;;;;;;;;5064170;28;20049;-69
2023/01/27 01:08:51;;;;;;;11.10;5.47;;;;;;;;;;5058730;28;20060;-69
2023/01/27 01:11:18;;;;;;;10.57;5.38;;;;;;;;;;5067909;28;20032;-70
2023/01/27 01:13:44;;;;;;;8.88;5.47;;;;;;;;;;5051779;28;20431;-69
2023/01/27 01:16:16;;;;;;;7.55;4.53;;;4.70;99.90;;;;;;5063247;28;20452;-69
2023/01/27 01:18:42;;;;;;;9.93;4.95;;;;;;;;;;5070012;28;20080;-69
2023/01/27 01:21:09;;;;;;;11.50;5.32;;;;;;;;;;5067725;28;20075;-70
2023/01/27 01:23:39;;;;;;;12.65;4.95;;;;;;;;;;5061113;28;20029;-69
2023/01/27 01:26:05;;;;;;;12.82;5.75;;;;;;;;;;5066553;28;20418;-69
2023/01/27 01:28:32;;;;;;;13.20;6.03;;;;;;;;;;5061374;28;20048;-69
2023/01/27 01:31:24;;;;;;;7.25;4.82;;;4.70;99.90;;;;;;5062106;28;20051;-69
2023/01/27 01:33:49;;;;;;;9.35;5.47;;;4.70;99.90;;;;;;5057331;28;20617;-69
2023/01/27 01:36:18;;;;;;;10.82;5.03;;;4.70;99.90;;;;;;5067253;28;20060;-69
2023/01/27 01:38:44;;;;;;;7.65;5.38;;;;;;;;;;5067466;28;20033;-70
2023/01/27 01:41:12;;;;;;;9.48;4.63;;;;;;;;;;5057027;28;20037;-69
2023/01/27 01:43:38;;;;;;;6.95;4.60;;;;;;;;;;5066953;28;20097;-70
2023/01/27 01:46:06;;;;;;;7.95;5.32;;;4.60;99.90;;;;;;5063707;28;20097;-69
2023/01/27 01:48:53;;;;;;;7.88;3.92;;;4.60;99.90;;;;;;5062136;28;20134;-69
2023/01/27 01:51:21;;;;;;;8.07;4.78;;;4.60;99.90;;;;;;5060587;28;20132;-69
2023/01/27 01:54:26;;;;;;;8.50;4.68;;;4.60;99.90;;;;;;5058812;28;20074;-69
2023/01/27 01:57:01;;;;;;;12.25;4.75;;;4.60;99.90;;;;;;5004046;28;20515;-71
2023/01/27 01:59:43;;;;;;;7.97;4.35;;;4.60;99.90;;;;;;5054137;28;20040;-69
2023/01/27 02:02:16;;;;;;;7.95;4.68;;;4.60;99.90;;;;;;5062697;28;20036;-69
2023/01/27 02:04:46;;;;;;;16.75;6.22;;;4.60;99.90;;;;;;5058770;28;20043;-69
2023/01/27 02:07:30;;;;;;;9.55;4.55;;;4.60;99.90;;;;;;5059993;28;20047;-69
2023/01/27 02:09:57;;;;;;;7.63;4.15;;;4.60;99.90;;;;;;5063773;28;20522;-69
2023/01/27 02:12:23;;;;;;;15.70;5.20;;;4.60;99.90;;;;;;5058380;28;20040;-70
2023/01/27 02:14:48;;;;;;;7.50;4.05;;;4.60;99.90;;;;;;5072317;28;20048;-69
2023/01/27 02:17:15;;;;;;;8.23;4.65;;;4.60;99.90;;;;;;5063167;28;20737;-69
2023/01/27 02:19:57;;;;;;;10.85;4.35;;;4.60;99.90;;;;;;5058919;28;20033;-69
2023/01/27 02:22:50;;;;;;;9.38;4.63;;;4.50;99.90;;;;;;5064414;28;20102;-69
2023/01/27 02:25:27;;;;;;;7.32;3.75;;;4.50;99.90;;;;;;5062505;28;20174;-69
2023/01/27 02:27:52;;;;;;;7.68;4.15;;;4.50;99.90;;;;;;5064193;28;20049;-69
2023/01/27 02:30:19;;;;;;;6.47;3.70;;;4.50;99.90;;;;;;5060042;28;20521;-69
2023/01/27 02:32:45;;;;;;;10.02;4.18;;;4.50;99.90;;;;;;5059207;28;20116;-70
2023/01/27 02:35:15;;;;;;;10.40;3.85;;;4.50;99.90;;;;;;5060688;28;20446;-70
2023/01/27 02:37:41;;;;;;;7.10;3.30;;;4.50;99.90;;;;;;5062565;28;20052;-68
2023/01/27 02:40:09;;;;;;;6.80;3.25;;;4.50;99.90;;;;;;5061262;28;20398;-69
2023/01/27 02:42:35;;;;;;;7.65;4.22;;;4.50;99.90;;;;;;5060442;28;20501;-69
2023/01/27 02:45:01;;;;;;;4.88;2.58;;;4.50;99.90;;;;;;5062667;28;20036;-69
2023/01/27 02:47:26;;;;;;;10.55;3.70;;;4.50;99.90;;;;;;5058212;28;20032;-69
2023/01/27 02:49:53;;;;;;;7.07;2.90;;;4.50;99.90;;;;;;5067479;28;20232;-69
2023/01/27 02:52:19;;;;;;;5.20;2.80;;;4.50;99.90;;;;;;5056052;28;20063;-69
2023/01/27 02:54:45;;;;;;;5.63;2.33;;;4.50;99.90;;;;;;5067089;28;20036;-69
2023/01/27 02:57:11;;;;;;;4.22;2.33;;;4.50;99.90;;;;;;5054691;28;20033;-69
2023/01/27 02:59:36;;;;;;;6.55;2.08;;;4.50;99.90;;;;;;5061795;28;20039;-69
2023/01/27 03:02:02;;;;;;;7.47;2.03;;;4.50;99.90;;;;;;5076342;28;20469;-69
2023/01/27 03:04:29;;;;;;;4.93;2.58;;;4.50;99.90;;;;;;5067051;28;20469;-69
2023/01/27 03:06:54;;;;;;;3.40;1.55;;;4.50;99.90;;;;;;5053732;28;20051;-69
2023/01/27 03:09:20;;;;;;;3.08;1.63;;;;;;;;;;5063367;28;20044;-69
2023/01/27 03:20:01;;;;;;;3.83;1.70;;;;;;;;;;5064040;28;20028;-69
2023/01/27 03:22:27;;;;;;;6.20;1.52;;;;;;;;;;5063766;28;20036;-69
2023/01/27 03:24:53;;;;;;;4.13;1.63;;;;;;;;;;5061699;28;20048;-70
2023/01/27 03:27:19;;;;;;;3.65;1.60;;;;;;;;;;5059633;28;20506;-69
2023/01/27 03:29:54;;;;;;;5.50;1.55;;;;;;;;;;5065544;28;20036;-69
2023/01/27 03:32:25;;;;;;;4.05;1.80;;;4.50;99.90;;;;;;5064274;28;20135;-69
2023/01/27 03:34:52;;;;;;;5.47;1.73;;;4.40;99.90;;;;;;5058896;28;20048;-69
2023/01/27 03:48:22;;;;;;;1.95;1.08;;;;;;;;;;5062903;28;20051;-69
2023/01/27 03:50:52;;;;;;;3.72;1.33;;;;;;;;;;5066751;28;20489;-69
2023/01/27 03:53:21;;;;;;;7.25;1.60;;;;;;;;;;5063141;28;20084;-69
2023/01/27 03:55:47;;;;;;;4.85;1.90;;;;;;;;;;5062680;28;20047;-69
2023/01/27 03:58:35;;;;;;;5.97;1.48;;;4.40;99.90;;;;;;5063751;28;20043;-69
2023/01/27 04:01:19;;;;;;;4.43;1.65;;;4.30;99.90;;;;;;5060098;28;20040;-69
2023/01/27 04:09:21;;;;;;;3.85;1.85;;;;;;;;;;5065362;28;20502;-69
2023/01/27 04:11:53;;;;;;;5.10;1.73;;;4.20;99.90;;;;;;5068606;28;20052;-69
2023/01/27 04:14:24;;;;;;;4.13;1.98;;;4.20;99.90;;;;;;5063767;28;20075;-69
2023/01/27 04:16:52;;;;;;;3.85;1.83;;;4.20;99.90;;;;;;5071627;28;20085;-69
2023/01/27 04:19:18;;;;;;;4.50;1.92;;;4.20;99.90;;;;;;5063697;28;20086;-68
2023/01/27 04:21:45;;;;;;;6.70;1.30;;;4.10;99.90;;;;;;5066932;28;20060;-69
2023/01/27 04:24:24;;;;;;;5.45;2.20;;;;;;;;;;5061759;28;20080;-69
2023/01/27 04:27:01;;;;;;;8.88;2.10;;;;;;;;;;5066467;28;20057;-69
2023/01/27 04:29:29;;;;;;;5.80;1.95;;;4.10;99.90;;;;;;5066219;28;20076;-69
2023/01/27 04:31:56;;;;;;;7.38;2.00;;;;;;;;;;5064897;28;20075;-69
2023/01/27 04:34:23;;;;;;;3.22;1.55;;;;;;;;;;5063814;28;20045;-70
2023/01/27 04:36:49;;;;;;;3.13;2.10;;;;;;;;;;5067366;28;20040;-69
2023/01/27 04:39:15;;;;;;;3.75;1.70;;;4.10;99.90;;;;;;5058499;28;20033;-69
2023/01/27 04:41:42;;;;;;;4.13;1.60;;;4.10;99.90;;;;;;5057398;28;20033;-69
2023/01/27 04:44:09;;;;;;;5.75;1.98;;;4.10;99.90;;;;;;5056994;28;20126;-70
2023/01/27 04:46:36;;;;;;;6.00;2.08;;;;;;;;;;5062120;28;20035;-69
2023/01/27 04:49:03;;;;;;;3.53;2.55;;;;;;;;;;5056115;28;20532;-69
2023/01/27 04:51:29;;;;;;;4.65;2.35;;;;;;;;;;5058634;28;20124;-69
2023/01/27 04:53:56;;;;;;;4.70;2.03;;;;;;;;;;5057314;28;20037;-70
2023/01/27 04:56:34;;;;;;;3.35;2.25;;;4.10;99.90;;;;;;5062932;28;20111;-70
2023/01/27 04:59:00;;;;;;;4.38;2.20;;;;;;;;;;5057453;28;20524;-69
2023/01/27 05:01:27;;;;;;;4.50;2.83;;;4.00;99.90;;;;;;5060799;28;20383;-69
2023/01/27 05:03:54;;;;;;;4.40;2.55;;;4.00;99.90;;;;;;5057868;28;20040;-69
2023/01/27 05:06:20;;;;;;;4.00;2.60;;;4.00;99.90;;;;;;5057057;28;20413;-69
2023/01/27 05:08:46;;;;;;;5.50;2.30;;;;;;;;;;5051282;28;20048;-69
2023/01/27 05:11:12;;;;;;;10.20;2.15;;;;;;;;;;5052162;28;20585;-69
2023/01/27 05:13:42;;;;;;;3.33;1.63;;;;;;;;;;5055862;28;20091;-70
2023/01/27 05:16:10;;;;;;;3.72;1.65;;;;;;;;;;5053412;28;20036;-70
2023/01/27 05:18:36;;;;;;;4.78;2.30;;;;;;;;;;5053216;28;20047;-69
2023/01/27 05:21:03;;;;;;;4.60;1.98;;;;;;;;;;5055974;28;20040;-69
2023/01/27 05:23:35;;;;;;;4.22;1.90;;;;;;;;;;5053925;28;20047;-70
2023/01/27 05:26:06;;;;;;;5.07;1.98;;;;;;;;;;5052979;28;20056;-69
2023/01/27 05:28:32;;;;;;;3.97;2.22;;;;;;;;;;5052284;28;20049;-69
2023/01/27 05:31:03;;;;;;;3.88;1.85;;;;;;;;;;5053269;28;20044;-69
2023/01/27 05:33:29;;;;;;;3.67;1.67;;;;;;;;;;5056384;28;20044;-69
2023/01/27 05:35:58;;;;;;;5.50;1.92;;;;;;;;;;5053972;28;20037;-70
2023/01/27 05:38:24;;;;;;;4.35;1.92;;;;;;;;;;5053622;28;20029;-69
2023/01/27 05:40:53;;;;;;;2.45;2.00;;;;;;;;;;5057237;28;20181;-70
2023/01/27 05:43:20;;;;;;;5.35;2.30;;;;;;;;;;5056315;28;20099;-70
2023/01/27 05:45:46;;;;;;;3.35;1.70;;;;;;;;;;5054398;28;20139;-69
2023/01/27 05:48:12;;;;;;;2.60;1.58;;;;;;;;;;5053459;28;20041;-70
2023/01/27 05:50:38;;;;;;;3.85;1.50;;;;;;;;;;5056569;28;20579;-70
2023/01/27 05:53:04;;;;;;;4.22;1.65;;;;;;;;;;5047585;28;20101;-69
2023/01/27 05:55:30;;;;;;;3.00;1.60;;;;;;;;;;5058370;28;20056;-69
2023/01/27 05:57:56;;;;;;;3.92;1.40;;;;;;;;;;5052539;28;20475;-69
2023/01/27 06:00:22;;;;;;;3.42;1.77;;;;;;;;;;5053863;28;20045;-69
2023/01/27 06:02:49;;;;;;;2.40;1.10;;;;;;;;;;5053680;28;20477;-69
2023/01/27 06:05:15;;;;;;;2.88;1.38;;;;;;;;;;5055999;28;20040;-70
2023/01/27 06:07:42;;;;;;;3.35;1.48;;;;;;;;;;5059737;28;20036;-70
2023/01/27 06:10:08;;;;;;;2.90;1.48;;;;;;;;;;5053174;28;20041;-69
2023/01/27 06:12:35;;;;;;;4.43;1.73;;;;;;;;;;5052805;28;20044;-70
2023/01/27 06:15:01;;;;;;;7.63;2.15;;;;;;;;;;5056660;28;20037;-70
2023/01/27 06:17:28;;;;;;;3.47;1.48;;;;;;;;;;5063373;28;20562;-69
2023/01/27 06:19:55;;;;;;;4.72;1.38;;;;;;;;;;5057829;28;20071;-69
2023/01/27 06:22:21;;;;;;;5.28;1.80;;;;;;;;;;5069379;28;20075;-69
2023/01/27 06:24:47;;;;;;;5.00;1.63;;;;;;;;;;5066512;28;20082;-69
2023/01/27 06:27:14;;;;;;;5.65;2.05;;;;;;;;;;5062110;28;20060;-69
2023/01/27 06:29:40;;;;;;;3.30;1.30;;;;;;;;;;5052287;28;20043;-71
2023/01/27 06:32:06;;;;;;;3.63;1.15;;;;;;;;;;5052928;28;20047;-71
2023/01/27 06:34:33;;;;;;;3.03;1.45;;;;;;;;;;5054825;28;20659;-69
2023/01/27 06:36:59;;;;;;;3.30;1.40;;;;;;;;;;5060210;28;20532;-70
2023/01/27 06:39:25;;;;;;;4.00;1.55;;;;;;;;;;5049963;28;20033;-70
2023/01/27 06:41:51;;;;;;;5.78;1.95;;;;;;;;;;5053814;28;20091;-70
2023/01/27 06:44:17;;;;;;;3.00;1.40;;;;;;;;;;5062838;28;20768;-69
2023/01/27 06:46:43;;;;;;;5.82;1.60;;;;;;;;;;5058130;28;20068;-70
2023/01/27 06:49:09;;;;;;;2.88;1.55;;;;;;;;;;5052751;28;20052;-69
2023/01/27 06:51:36;;;;;;;2.60;1.20;;;;;;;;;;5068404;28;20125;-70
2023/01/27 06:54:02;;;;;;;3.83;1.42;;;;;;;;;;5050829;28;20099;-69
2023/01/27 06:56:28;;;;;;;3.30;1.40;;;;;;;;;;5054383;28;20094;-70
2023/01/27 06:58:54;;;;;;;5.35;1.70;;;;;;;;;;5056196;28;20411;-69
2023/01/27 07:01:20;;;;;;;5.30;1.63;;;;;;;;;;5052893;28;20071;-70
2023/01/27 07:03:46;;;;;;;2.53;1.60;;;;;;;;;;5070123;28;20068;-70
2023/01/27 07:06:14;;;;;;;3.40;1.45;;;;;;;;;;5078504;28;20044;-69
2023/01/27 07:08:41;;;;;;;3.20;1.23;;;;;;;;;;5056703;28;20056;-69
2023/01/27 07:11:07;;;;;;;2.40;1.60;;;;;;;;;;5054313;28;20128;-70
2023/01/27 07:13:33;;;;;;;5.05;1.50;;;;;;;;;;5059723;28;20075;-70
2023/01/27 07:15:59;;;;;;;2.88;1.60;;;;;;;;;;5059340;28;20581;-69
2023/01/27 07:18:25;;;;;;;3.50;1.27;;;;;;;;;;5051812;28;20643;-70
2023/01/27 07:20:52;;;;;;;4.20;1.70;;;;;;;;;;5055787;28;20068;-70
2023/01/27 07:23:18;;;;;;;4.03;1.10;;;;;;;;;;5058963;28;20052;-70
2023/01/27 07:25:44;;;;;;;2.55;1.30;;;;;;;;;;5062072;28;20048;-69
2023/01/27 07:28:10;;;;;;;3.65;1.40;;;;;;;;;;5051936;28;20032;-69
2023/01/27 07:30:37;;;;;;;10.00;2.38;;;;;;;;;;5057721;28;20036;-69
2023/01/27 07:33:04;;;;;;;6.57;1.30;;;;;;;;;;5055276;28;20123;-70
2023/01/27 07:35:30;;;;;;;4.38;1.80;;;;;;;;;;5045859;28;20029;-69
2023/01/27 07:37:57;;;;;;;2.90;1.45;;;;;;;;;;5058563;28;20036;-69
2023/01/27 07:40:23;;;;;;;2.40;1.38;;;;;;;;;;5057919;28;20036;-70
2023/01/27 07:42:49;;;;;;;3.08;1.55;;;;;;;;;;5056965;28;20918;-70
2023/01/27 07:45:15;;;;;;;3.97;1.75;;;;;;;;;;5054656;28;20041;-70
2023/01/27 07:47:41;;;;;;;4.22;1.27;;;;;;;;;;5054677;28;20823;-70
2023/01/27 07:50:08;;;;;;;5.35;1.70;;;;;;;;;;5055007;28;20454;-70
2023/01/27 07:52:35;;;;;;;5.00;1.23;;;;;;;;;;5056495;28;20040;-70
2023/01/27 07:55:01;;;;;;;5.65;1.60;;;;;;;;;;5069984;28;20036;-70
2023/01/27 07:57:27;;;;;;;4.43;1.48;;;;;;;;;;5057462;28;20069;-69
2023/01/27 07:59:55;;;;;;;3.90;1.85;;;;;;;;;;5056203;28;20434;-69
2023/01/27 08:02:22;;;;;;;3.90;1.38;;;;;;;;;;5050160;28;20052;-69
2023/01/27 08:04:49;;;;;;;1.75;1.08;;;;;;;;;;5052543;28;20049;-69
2023/01/27 08:07:16;;;;;;;4.28;1.48;;;;;;;;;;5050860;28;20033;-69
2023/01/27 08:09:42;;;;;;;2.60;1.45;;;;;;;;;;5053484;28;20077;-68
2023/01/27 08:12:08;;;;;;;4.78;1.27;;;;;;;;;;5056444;28;20037;-70
2023/01/27 08:14:34;;;;;;;3.63;1.60;;;;;;;;;;5056342;28;20029;-70
2023/01/27 08:17:00;;;;;;;5.13;1.17;;;;;;;;;;5056445;28;20044;-70
2023/01/27 08:19:27;;;;;;;2.50;0.85;;;;;;;;;;5058394;28;20032;-70
2023/01/27 08:21:53;;;;;;;3.88;1.55;;;;;;;;;;5061944;28;20273;-70
2023/01/27 08:24:19;;;;;;;1.65;0.90;;;;;;;;;;5060644;28;20055;-70
2023/01/27 08:26:45;;;;;;;4.03;1.33;;;;;;;;;;5066730;28;20047;-69
2023/01/27 08:29:11;;;;;;;2.78;1.33;;;;;;;;;;5055861;28;20037;-70
2023/01/27 08:31:37;;;;;;;1.60;0.98;;;;;;;;;;5064119;28;20048;-69
2023/01/27 08:34:03;;;;;;;1.58;0.90;;;;;;;;;;5064329;28;20043;-71
2023/01/27 08:36:30;;;;;;;1.27;0.80;;;;;;;;;;5058384;28;20045;-70
2023/01/27 08:38:56;;;;;;;2.63;1.10;;;;;;;;;;5053800;28;20210;-70
2023/01/27 08:41:23;;;;;;;2.00;0.90;;;;;;;;;;5057847;28;20171;-69
2023/01/27 08:43:49;;;;;;;2.60;1.75;;;;;;;;;;5066173;28;20044;-70
2023/01/27 08:46:15;;;;;;;2.42;1.65;;;;;;;;;;5062348;28;20040;-70
2023/01/27 08:48:42;;;;;;;1.23;0.80;;;;;;;;;;5058466;28;20082;-70
2023/01/27 08:51:09;;;;;;;2.78;1.20;;;;;;;;;;5058466;28;20036;-70
2023/01/27 08:53:38;;;;;;;3.40;1.00;;;;;;;;;;5060973;28;20383;-69
2023/01/27 08:56:06;;;;;;;1.88;0.98;;;;;;;;;;5062185;28;20039;-69
2023/01/27 08:58:32;;;;;;;3.42;1.00;;;;;;;;;;5063922;28;20391;-69
2023/01/27 09:01:02;;;;;;;3.33;0.85;;;;;;;;;;5060004;28;20087;-70
2023/01/27 09:03:29;;;;;;;2.00;1.10;;;;;;;;;;5061586;28;20124;-70
2023/01/27 09:05:55;;;;;;;2.28;1.05;;;;;;;;;;5065662;28;20071;-69
2023/01/27 09:08:21;;;;;;;1.90;0.88;;;;;;;;;;5064448;28;20037;-70
2023/01/27 09:10:47;;;;;;;2.22;1.10;;;;;;;;;;5064226;28;20512;-70
2023/01/27 09:13:15;;;;;;;2.13;1.10;;;;;;;;;;5059539;28;20517;-69
2023/01/27 09:15:42;;;;;;;4.47;0.93;;;;;;;;;;5067614;28;20494;-70
2023/01/27 09:18:09;;;;;;;2.17;0.90;;;;;;;;;;5060565;28;20555;-70
2023/01/27 09:20:38;;;;;;;3.65;0.93;;;;;;;;;;5062748;28;20043;-70
2023/01/27 09:23:04;;;;;;;1.25;0.75;;;;;;;;;;5047634;28;20556;-69
2023/01/27 09:25:31;;;;;;;1.92;0.98;;;;;;;;;;5057237;28;20402;-70
2023/01/27 09:27:58;;;;;;;7.07;1.45;;;;;;;;;;5054122;28;21387;-70
2023/01/27 09:30:25;;;;;;;2.05;1.33;;;;;;;;;;5059653;28;20056;-70
2023/01/27 09:32:51;;;;;;;4.50;1.02;;;;;;;;;;5059928;28;20052;-69
2023/01/27 09:35:18;;;;;;;0.88;0.70;;;;;;;;;;5055439;28;20380;-70
2023/01/27 09:37:44;;;;;;;6.78;1.70;;;;;;;;;;5056725;28;20498;-70
2023/01/27 09:40:20;;;;;;;1.90;0.82;;;;;;;;;;5055673;28;20067;-70
2023/01/27 09:42:53;;;;;;;14.15;1.05;;;;;;;;;;5045995;28;20532;-69
2023/01/27 09:45:19;;;;;;;;;;;;;;;;;;5055263;28;20079;-69
2023/01/27 09:47:45;;;;;;;1.13;0.73;;;;;;;;;;5062888;28;20547;-69
2023/01/27 09:50:30;;;;;;;1.88;0.90;;;;;;;;;;5061462;28;20124;-69
2023/01/27 09:53:04;;;;;;;3.15;0.85;;;;;;;;;;5058601;28;20045;-70
2023/01/27 09:55:38;;;;;;;2.47;0.80;;;;;;;;;;5057891;28;20033;-70
2023/01/27 09:58:09;;;;;;;1.60;0.63;;;;;;;;;;5062083;28;20094;-69
2023/01/27 10:00:38;;;;;;;1.75;0.90;;;;;;;;;;5059014;28;20044;-69
2023/01/27 10:03:04;;;;;;;2.90;1.10;;;;;;;;;;5065142;28;20112;-69
2023/01/27 10:05:47;;;;;;;2.38;1.13;;;;;;;;;;5061417;28;20445;-70
2023/01/27 10:08:16;;;;;;;3.90;1.07;;;;;;;;;;5074943;28;20064;-70
2023/01/27 10:11:20;;;;;;;2.78;0.80;;;;;;;;;;5060367;28;20482;-70
2023/01/27 10:13:51;;;;;;;1.33;1.10;;;;;;;;;;5037511;28;20053;-69
2023/01/27 10:16:27;;;;;;;3.13;1.80;;;;;;;;;;5036009;28;20045;-70
2023/01/27 10:19:01;;;;;;;2.42;1.00;;;;;;;;;;5032302;28;20084;-69
2023/01/27 10:21:33;;;;;;;2.17;1.00;;;;;;;;;;5064300;28;20082;-70
2023/01/27 10:23:59;;;;;;;1.98;1.00;;;;;;;;;;5063719;28;20383;-70
2023/01/27 10:26:34;;;;;;;3.00;1.15;;;4.00;99.90;;;;;;5062802;28;20140;-69
2023/01/27 10:29:09;;;;;;;1.92;1.00;;;;;;;;;;5056275;28;20135;-70
2023/01/27 10:31:45;;;;;;;5.95;1.20;;;;;;;;;;5044267;28;20036;-70
2023/01/27 10:34:27;;;;;;;2.42;1.15;;;;;;;;;;5054197;28;20511;-70
2023/01/27 10:37:00;;;;;;;1.02;0.70;;;;;;;;;;5066547;28;20043;-69
2023/01/27 10:39:43;;;;;;;1.35;0.75;;;;;;;;;;5059034;28;20064;-70
2023/01/27 10:42:18;;;;;;;2.33;0.85;;;;;;;;;;5060759;28;20498;-70
2023/01/27 10:45:07;;;;;;;1.45;0.88;;;4.40;99.90;;;;;;5063597;28;20044;-70
2023/01/27 10:47:44;;;;;;;1.85;0.90;;;4.70;99.90;;;;;;5054186;28;20534;-70
2023/01/27 10:50:17;;;;;;;2.08;1.00;;;4.70;99.90;;;;;;5062327;28;20037;-70
2023/01/27 10:53:18;;;;;;;3.00;1.13;;;4.70;99.90;;;;;;5056731;28;20041;-70
2023/01/27 10:55:58;;;;;;;2.75;1.10;;;4.70;99.90;;;;;;5058779;28;20087;-70
2023/01/27 10:58:44;;;;;;;2.05;1.08;;;4.70;99.90;;;;;;5056713;28;20470;-70
2023/01/27 11:01:13;;;;;;;1.30;0.90;;;4.70;99.90;;;;;;5057370;28;20055;-70
2023/01/27 11:03:46;;;;;;;1.52;0.98;;;4.70;99.90;;;;;;5057493;28;20114;-69
2023/01/27 11:06:16;;;;;;;2.13;1.25;;;4.60;99.90;;;;;;5059792;28;20147;-69
2023/01/27 11:08:46;;;;;;;2.20;1.08;;;4.70;99.90;;;;;;5058725;28;20033;-69
2023/01/27 11:14:08;;;;;;;1.02;0.90;;;4.70;99.90;;;;;;5065239;28;20143;-70
2023/01/27 11:16:41;;;;;;;3.75;0.68;;;4.60;99.90;;;;;;5064057;28;20032;-70
2023/01/27 11:19:22;;;;;;;1.02;0.93;;;4.70;99.90;;;;;;5057721;28;20033;-70
2023/01/27 11:21:52;;;;;;;7.95;1.17;;;4.70;99.90;;;;;;5063260;28;20076;-69
2023/01/27 11:24:42;;;;;;;4.13;1.10;;;4.70;99.90;;;;;;5062925;28;20066;-70
2023/01/27 11:27:23;;;;;;;1.67;1.10;;;;;;;;;;5074300;28;20056;-70
2023/01/27 11:29:59;;;;;;;2.05;0.88;;;;;;;;;;5063905;28;20052;-70
2023/01/27 11:32:44;;;;;;;1.90;0.90;;;;;;;;;;5054432;28;20033;-70
2023/01/27 11:35:11;;;;;;;6.53;2.65;;;;;;;;;;5058426;28;20332;-69
2023/01/27 11:37:39;;;;;;;1.63;1.10;;;;;;;;;;5059160;28;20071;-70
2023/01/27 11:40:16;;;;;;;6.82;1.58;;;;;;;;;;5064946;28;20600;-70
2023/01/27 11:42:42;;;;;;;1.38;0.95;;;;;;;;;;5059638;28;20477;-70
2023/01/27 11:45:16;;;;;;;3.75;1.20;;;;;;;;;;5064440;28;20102;-70
2023/01/27 11:47:43;;;;;;;1.98;1.23;;;;;;;;;;5060754;28;20059;-69
2023/01/27 11:50:23;;;;;;;2.47;1.42;;;;;;;;;;5056356;28;20049;-69
2023/01/27 11:53:09;;;;;;;3.40;1.90;;;;;;;;;;5066905;28;20098;-70
2023/01/27 11:55:37;;;;;;;2.50;1.10;;;;;;;;;;5059743;28;20041;-70
2023/01/27 11:58:13;;;;;;;4.80;2.33;;;;;;;;;;5060596;28;20067;-70
2023/01/27 12:00:45;;;;;;;5.57;1.30;;;;;;;;;;5066049;28;20039;-70
2023/01/27 12:03:22;;;;;;;3.70;2.40;;;;;;;;;;5068079;28;20509;-70
2023/01/27 12:05:53;;;;;;;9.57;3.45;;;;;;;;;;5040254;28;20083;-70
2023/01/27 12:08:40;;;;;;;3.40;2.17;;;;;;;;;;5060111;28;20044;-71
2023/01/27 12:11:20;;;;;;;5.78;2.75;;;;;;;;;;5071705;28;20044;-70
2023/01/27 12:13:50;;;;;;;3.38;2.38;;;;;;;;;;5053661;28;20032;-70
2023/01/27 12:16:16;;;;;;;2.83;1.27;;;;;;;;;;5050642;28;20048;-70
2023/01/27 12:18:54;;;;;;;2.08;1.40;;;;;;;;;;5063866;28;20040;-70
2023/01/27 12:21:21;;;;;;;2.00;1.20;;;;;;;;;;5062230;28;20037;-70
2023/01/27 12:23:47;;;;;;;2.88;1.48;;;;;;;;;;5058473;28;20044;-70
2023/01/27 12:26:14;;;;;;;4.03;1.95;;;;;;;;;;5059890;28;20036;-69
2023/01/27 12:28:40;;;;;;;3.33;1.73;;;;;;;;;;5058748;28;20088;-70
2023/01/27 12:31:08;;;;;;;3.55;1.55;;;;;;;;;;5063039;28;20053;-70
2023/01/27 12:33:37;;;;;;;2.90;1.63;;;;;;;;;;5060380;28;20037;-70
2023/01/27 12:36:10;;;;;;;6.72;1.58;;;;;;;;;;5029697;28;20481;-70
2023/01/27 12:38:36;;;;;;;2.38;1.55;;;;;;;;;;5061920;28;20035;-70
2023/01/27 12:41:04;;;;;;;5.70;1.40;;;;;;;;;;5056992;28;21159;-69
2023/01/27 12:43:30;;;;;;;3.60;1.70;;;;;;;;;;5056044;28;20044;-69
2023/01/27 12:46:03;;;;;;;3.00;1.55;;;;;;;;;;5058624;28;20032;-70
2023/01/27 12:48:35;;;;;;;6.28;1.50;;;;;;;;;;5057347;28;20110;-70
2023/01/27 12:51:05;;;;;;;2.67;1.65;;;;;;;;;;5057930;28;20033;-70
2023/01/27 12:53:31;;;;;;;3.00;1.55;;;;;;;;;;5063238;28;20033;-70
2023/01/27 12:55:59;;;;;;;2.78;1.00;;;;;;;;;;5059333;28;20111;-70
2023/01/27 12:58:36;;;;;;;1.35;0.95;;;;;;;;;;5064592;28;20190;-70
2023/01/27 13:01:04;;;;;;;1.55;0.73;;;;;;;;;;5057677;28;20167;-70
2023/01/27 13:03:31;;;;;;;1.98;1.20;;;;;;;;;;5058333;28;20120;-69
2023/01/27 13:05:58;;;;;;;2.28;1.23;;;;;;;;;;5066273;28;20079;-70
2023/01/27 13:08:25;;;;;;;1.48;1.05;;;;;;;;;;5061011;28;20522;-70
2023/01/27 13:10:54;;;;;;;2.67;1.20;;;;;;;;;;5060952;28;20071;-69
2023/01/27 13:13:23;;;;;;;1.95;1.10;;;;;;;;;;5064082;28;20085;-69
2023/01/27 13:15:54;;;;;;;1.40;1.08;;;;;;;;;;5062565;28;20083;-70
2023/01/27 13:18:20;;;;;;;1.90;1.30;;;;;;;;;;5057078;28;20109;-69
2023/01/27 13:20:56;;;;;;;4.53;1.50;;;;;;;;;;5058834;28;20360;-70
2023/01/27 13:23:23;;;;;;;2.30;1.45;;;;;;;;;;5058246;28;20040;-70
2023/01/27 13:25:53;;;;;;;5.57;2.55;;;;;;;;;;5055018;28;20159;-70
2023/01/27 13:28:27;;;;;;;4.32;3.28;;;;;;;;;;5056478;28;20049;-69
2023/01/27 13:30:56;;;;;;;5.93;2.72;;;;;;;;;;5062722;28;20036;-70
2023/01/27 13:33:39;;;;;;;4.55;2.13;;;;;;;;;;5062723;28;20459;-69
2023/01/27 13:36:08;;;;;;;4.93;1.98;;;;;;;;;;5065816;28;20044;-69
2023/01/27 13:38:53;;;;;;;3.50;2.45;;;;;;;;;;5053096;28;20040;-70
2023/01/27 13:41:46;;;;;;;4.10;2.65;;;;;;;;;;5059800;28;20033;-70
2023/01/27 13:44:35;;;;;;;4.20;2.87;;;;;;;;;;5057291;28;20108;-70
2023/01/27 13:47:04;;;;;;;5.18;2.90;;;;;;;;;;5060938;28;20298;-70
2023/01/27 13:49:36;;;;;;;4.10;2.60;;;;;;;;;;5061978;28;20064;-70
2023/01/27 13:52:04;;;;;;;4.45;3.05;;;;;;;;;;5058344;28;20466;-70
2023/01/27 13:54:30;;;;;;;5.72;3.42;;;;;;;;;;5058119;28;20524;-70
2023/01/27 13:57:04;;;;;;;7.03;3.17;;;;;;;;;;5061127;28;20046;-70
2023/01/27 13:59:30;;;;;;;5.25;3.58;;;;;;;;;;5057847;28;20119;-70
2023/01/27 14:02:00;;;;;;;4.22;2.88;;;;;;;;;;5057881;28;20036;-69
2023/01/27 14:04:45;;;;;;;5.65;3.65;;;;;;;;;;5065173;28;20040;-70
2023/01/27 14:07:13;;;;;;;8.73;3.60;;;;;;;;;;5063693;28;20043;-70
2023/01/27 14:09:58;;;;;;;5.45;3.75;;;;;;;;;;5052962;28;20044;-70
2023/01/27 14:12:24;;;;;;;4.60;4.00;;;;;;;;;;5058135;28;20414;-69
2023/01/27 14:14:54;;;;;;;5.60;3.80;;;;;;;;;;5060490;28;20141;-70
2023/01/27 14:17:25;;;;;;;5.95;3.78;;;;;;;;;;5063496;28;20043;-70
2023/01/27 14:20:03;;;;;;;5.18;3.67;;;;;;;;;;5074302;28;20041;-69
2023/01/27 14:22:43;;;;;;;5.80;3.95;;;;;;;;;;5061456;28;20490;-70
2023/01/27 14:25:12;;;;;;;4.28;3.28;;;;;;;;;;5061152;28;20040;-70
2023/01/27 14:27:45;;;;;;;4.70;3.38;;;;;;;;;;5056893;28;20059;-69
2023/01/27 14:30:12;;;;;;;3.63;2.83;;;;;;;;;;5060287;28;20044;-70
2023/01/27 14:33:01;;;;;;;3.53;2.20;;;;;;;;;;5064907;28;20041;-70
2023/01/27 14:35:33;;;;;;;3.33;2.33;;;;;;;;;;5060091;28;20028;-69
2023/01/27 14:38:15;;;;;;;4.75;2.38;;;;;;;;;;5062050;28;20102;-70
2023/01/27 14:41:00;;;;;;;2.15;1.30;;;;;;;;;;5057180;28;20082;-69
2023/01/27 14:43:26;;;;;;;2.03;1.20;;;;;;;;;;5060846;28;20538;-70
2023/01/27 14:45:52;;;;;;;2.22;1.20;;;;;;;;;;5062916;28;20040;-69
2023/01/27 14:48:28;;;;;;;1.73;1.00;;;;;;;;;;5060804;28;20033;-70
2023/01/27 14:51:04;;;;;;;1.77;1.00;;;;;;;;;;5060411;28;21644;-70
2023/01/27 14:53:39;;;;;;;1.80;1.42;;;;;;;;;;5058809;28;20628;-69
2023/01/27 14:56:19;;;;;;;1.33;0.88;;;;;;;;;;5057873;28;20200;-69
2023/01/27 14:58:45;;;;;;;1.92;0.60;;;;;;;;;;5057351;28;20445;-70
2023/01/27 15:01:11;;;;;;;0.82;0.57;;;;;;;;;;5060030;28;20039;-69
2023/01/27 15:03:44;;;;;;;0.88;0.80;;;;;;;;;;5071111;28;20068;-69
2023/01/27 15:06:15;;;;;;;0.60;0.50;;;;;;;;;;5066349;28;20117;-69